createdAt,value
2022-10-25T00:00:05.664Z,85.74
2022-10-25T00:02:36.968Z,85.72
2022-10-25T00:05:04.643Z,85.69
2022-10-25T00:07:31.180Z,85.64
2022-10-25T00:09:57.953Z,85.46
2022-10-25T00:12:24.862Z,85.55
2022-10-25T00:14:51.638Z,85.19
2022-10-25T00:17:18.180Z,85.17
2022-10-25T00:19:44.961Z,85.42
2022-10-25T00:22:11.498Z,85.70
2022-10-25T00:24:38.187Z,85.44
2022-10-25T00:27:05.876Z,85.39
2022-10-25T00:29:32.494Z,85.42
2022-10-25T00:31:59.010Z,85.32
2022-10-25T00:34:25.525Z,85.14
2022-10-25T00:36:52.074Z,85.25
2022-10-25T00:39:18.829Z,85.24
2022-10-25T00:41:45.344Z,85.00
2022-10-25T00:44:40.978Z,85.39
2022-10-25T00:47:18.128Z,85.07
2022-10-25T00:49:47.102Z,85.63
2022-10-25T00:52:13.713Z,85.25
2022-10-25T00:54:47.838Z,85.23
2022-10-25T00:57:43.689Z,84.86
2022-10-25T01:00:10.855Z,85.37
2022-10-25T01:02:37.466Z,85.18
2022-10-25T01:05:04.983Z,85.13
2022-10-25T01:07:31.580Z,85.52
2022-10-25T01:09:58.343Z,85.35
2022-10-25T01:12:24.878Z,85.60
2022-10-25T01:14:52.618Z,85.23
2022-10-25T01:17:56.265Z,85.03
2022-10-25T01:20:50.200Z,84.83
2022-10-25T01:23:28.612Z,85.13
2022-10-25T01:25:58.251Z,84.85
2022-10-25T01:28:51.086Z,85.06
2022-10-25T01:31:53.085Z,84.84
2022-10-25T01:34:45.410Z,85.14
2022-10-25T01:37:20.231Z,84.63
2022-10-25T01:40:01.876Z,84.54
2022-10-25T01:42:57.365Z,85.26
2022-10-25T01:45:44.103Z,84.68
2022-10-25T01:48:24.246Z,84.60
2022-10-25T01:50:50.905Z,84.23
2022-10-25T01:53:17.454Z,85.07
2022-10-25T01:55:47.176Z,84.99
2022-10-25T01:58:52.553Z,84.83
2022-10-25T02:01:34.134Z,84.36
2022-10-25T02:04:17.489Z,84.33
2022-10-25T02:07:02.127Z,84.79
2022-10-25T02:09:36.332Z,84.75
2022-10-25T02:12:06.094Z,84.75
2022-10-25T02:14:37.939Z,84.85
2022-10-25T02:17:12.851Z,85.37
2022-10-25T02:19:44.596Z,85.36
2022-10-25T02:22:13.563Z,85.26
2022-10-25T02:24:44.572Z,85.01
2022-10-25T02:27:13.739Z,85.30
2022-10-25T02:29:41.623Z,85.23
2022-10-25T02:32:08.660Z,85.05
2022-10-25T02:34:35.297Z,84.90
2022-10-25T02:37:04.136Z,85.32
2022-10-25T02:39:31.694Z,85.52
2022-10-25T02:41:58.785Z,85.08
2022-10-25T02:44:25.321Z,85.39
2022-10-25T02:46:51.824Z,85.06
2022-10-25T02:49:18.570Z,85.25
2022-10-25T02:51:45.155Z,84.98
2022-10-25T02:54:13.335Z,84.75
2022-10-25T02:56:39.864Z,85.18
2022-10-25T02:59:06.366Z,84.79
2022-10-25T03:01:33.029Z,84.98
2022-10-25T03:03:59.586Z,84.77
2022-10-25T03:06:26.350Z,84.62
2022-10-25T03:08:52.895Z,84.91
2022-10-25T03:11:19.376Z,84.54
2022-10-25T03:13:46.386Z,84.55
2022-10-25T03:16:12.953Z,84.61
2022-10-25T03:18:39.426Z,84.68
2022-10-25T03:21:07.062Z,84.43
2022-10-25T03:23:34.417Z,84.65
2022-10-25T03:26:01.570Z,84.48
2022-10-25T03:28:29.295Z,85.02
2022-10-25T03:30:57.230Z,84.75
2022-10-25T03:33:25.007Z,84.45
2022-10-25T03:35:53.116Z,84.88
2022-10-25T03:38:19.870Z,85.28
2022-10-25T03:40:46.607Z,85.57
2022-10-25T03:43:13.413Z,85.88
2022-10-25T03:45:40.076Z,85.85
2022-10-25T03:48:06.750Z,85.73
2022-10-25T03:50:33.822Z,86.57
2022-10-25T03:53:00.386Z,86.45
2022-10-25T03:55:27.255Z,86.18
2022-10-25T03:57:53.759Z,86.12
2022-10-25T04:00:20.338Z,85.94
2022-10-25T04:02:47.298Z,86.04
2022-10-25T04:05:14.935Z,86.31
2022-10-25T04:07:41.427Z,85.74
2022-10-25T04:10:08.423Z,85.89
2022-10-25T04:12:34.911Z,85.72
2022-10-25T04:15:01.408Z,85.84
2022-10-25T04:17:27.930Z,85.72
2022-10-25T04:19:54.474Z,85.39
2022-10-25T04:22:21.510Z,85.39
2022-10-25T04:24:48.023Z,85.25
2022-10-25T04:27:14.497Z,85.02
2022-10-25T04:29:40.992Z,85.23
2022-10-25T04:32:07.818Z,85.18
2022-10-25T04:34:34.379Z,84.78
2022-10-25T04:37:01.264Z,84.78
2022-10-25T04:39:27.717Z,85.22
2022-10-25T04:41:54.240Z,85.03
2022-10-25T04:44:21.133Z,85.11
2022-10-25T04:46:48.896Z,85.14
2022-10-25T04:49:16.258Z,84.89
2022-10-25T04:51:43.291Z,84.96
2022-10-25T04:54:12.292Z,84.57
2022-10-25T04:56:39.270Z,84.64
2022-10-25T04:59:08.897Z,84.53
2022-10-25T05:01:35.531Z,84.79
2022-10-25T05:04:02.064Z,84.57
2022-10-25T05:06:28.558Z,84.70
2022-10-25T05:08:55.459Z,84.35
2022-10-25T05:11:23.867Z,84.43
2022-10-25T05:13:51.072Z,84.23
2022-10-25T05:16:24.446Z,84.69
2022-10-25T05:18:54.104Z,85.00
2022-10-25T05:21:22.331Z,85.30
2022-10-25T05:23:48.946Z,85.11
2022-10-25T05:26:18.318Z,84.74
2022-10-25T05:28:46.645Z,85.43
2022-10-25T05:31:16.125Z,85.03
2022-10-25T05:33:46.822Z,85.05
2022-10-25T05:36:14.791Z,85.63
2022-10-25T05:38:42.400Z,85.36
2022-10-25T05:41:11.742Z,85.15
2022-10-25T05:43:38.392Z,85.43
2022-10-25T05:46:08.890Z,85.25
2022-10-25T05:48:36.916Z,85.24
2022-10-25T05:51:45.552Z,84.78
2022-10-25T05:54:14.707Z,85.01
2022-10-25T05:56:42.966Z,84.77
2022-10-25T05:59:11.949Z,84.41
2022-10-25T06:01:46.727Z,84.52
2022-10-25T06:04:14.522Z,85.21
2022-10-25T06:06:41.912Z,84.18
2022-10-25T06:09:09.287Z,84.35
2022-10-25T06:11:36.916Z,84.46
2022-10-25T06:14:03.946Z,84.55
2022-10-25T06:16:31.040Z,84.13
2022-10-25T06:18:57.858Z,84.28
2022-10-25T06:21:27.298Z,84.19
2022-10-25T06:23:54.823Z,84.25
2022-10-25T06:26:27.574Z,84.26
2022-10-25T06:28:57.057Z,84.39
2022-10-25T06:31:24.406Z,84.84
2022-10-25T06:33:51.295Z,85.02
2022-10-25T06:36:20.203Z,84.90
2022-10-25T06:38:47.728Z,84.50
2022-10-25T06:41:22.887Z,85.28
2022-10-25T06:43:49.768Z,85.41
2022-10-25T06:46:25.167Z,85.33
2022-10-25T06:48:53.261Z,85.26
2022-10-25T06:51:21.631Z,85.57
2022-10-25T06:53:48.217Z,85.26
2022-10-25T06:56:15.268Z,85.07
2022-10-25T06:58:42.425Z,84.95
2022-10-25T07:01:17.143Z,84.98
2022-10-25T07:03:44.398Z,85.41
2022-10-25T07:06:16.162Z,85.26
2022-10-25T07:08:45.814Z,85.01
2022-10-25T07:11:17.978Z,84.77
2022-10-25T07:13:44.812Z,84.77
2022-10-25T07:16:13.945Z,85.14
2022-10-25T07:18:42.660Z,84.57
2022-10-25T07:21:11.613Z,85.13
2022-10-25T07:23:42.370Z,84.67
2022-10-25T07:26:14.698Z,84.51
2022-10-25T07:28:43.352Z,84.82
2022-10-25T07:31:21.356Z,84.48
2022-10-25T07:33:49.617Z,84.53
2022-10-25T07:36:16.144Z,84.68
2022-10-25T07:38:42.710Z,84.28
2022-10-25T07:41:10.142Z,84.24
2022-10-25T07:43:36.770Z,84.06
2022-10-25T07:46:04.102Z,83.15
2022-10-25T07:48:30.749Z,82.66
2022-10-25T07:50:57.294Z,82.25
2022-10-25T07:53:23.894Z,82.32
2022-10-25T07:55:52.094Z,82.16
2022-10-25T07:58:19.259Z,81.93
2022-10-25T08:00:46.620Z,81.50
2022-10-25T08:03:14.724Z,80.99
2022-10-25T08:05:44.261Z,81.53
2022-10-25T08:08:11.326Z,81.27
2022-10-25T08:10:37.838Z,81.06
2022-10-25T08:13:04.371Z,80.81
2022-10-25T08:15:30.851Z,81.08
2022-10-25T08:18:01.840Z,81.13
2022-10-25T08:20:49.527Z,80.17
2022-10-25T08:23:16.004Z,80.08
2022-10-25T08:25:42.872Z,80.06
2022-10-25T08:28:09.442Z,79.38
2022-10-25T08:30:36.041Z,78.64
2022-10-25T08:33:02.663Z,78.31
2022-10-25T08:35:29.701Z,77.49
2022-10-25T08:37:56.226Z,77.68
2022-10-25T08:40:46.073Z,77.32
2022-10-25T08:43:15.702Z,75.92
2022-10-25T08:45:58.430Z,76.78
2022-10-25T08:48:32.966Z,76.31
2022-10-25T08:51:10.693Z,76.64
2022-10-25T08:53:42.871Z,77.15
2022-10-25T08:56:17.290Z,76.82
2022-10-25T08:58:53.789Z,76.66
2022-10-25T09:01:29.297Z,76.71
2022-10-25T09:03:56.070Z,76.45
2022-10-25T09:06:28.462Z,77.01
2022-10-25T09:09:01.023Z,76.96
2022-10-25T09:11:54.291Z,76.71
2022-10-25T09:14:33.095Z,76.27
2022-10-25T09:17:14.910Z,76.13
2022-10-25T09:20:02.342Z,76.45
2022-10-25T09:22:36.681Z,76.54
2022-10-25T09:25:12.531Z,76.22
2022-10-25T09:27:48.099Z,76.01
2022-10-25T09:30:15.071Z,75.06
2022-10-25T09:33:03.009Z,75.39
2022-10-25T09:35:45.302Z,75.00
2022-10-25T09:38:22.359Z,74.89
2022-10-25T09:41:03.831Z,74.21
2022-10-25T09:43:37.611Z,73.73
2022-10-25T09:46:13.966Z,73.67
2022-10-25T09:48:54.639Z,73.00
2022-10-25T09:51:39.565Z,73.55
2022-10-25T09:54:18.783Z,74.36
2022-10-25T09:56:45.303Z,74.10
2022-10-25T09:59:16.013Z,73.38
2022-10-25T10:01:43.158Z,73.79
2022-10-25T10:04:24.749Z,73.68
2022-10-25T10:06:54.168Z,73.37
2022-10-25T10:09:21.749Z,73.46
2022-10-25T10:11:52.762Z,73.75
2022-10-25T10:14:28.276Z,73.68
2022-10-25T10:16:58.118Z,73.33
2022-10-25T10:19:31.815Z,73.42
2022-10-25T10:22:07.218Z,73.51
2022-10-25T10:24:37.800Z,73.13
2022-10-25T10:27:23.530Z,72.30
2022-10-25T10:29:59.562Z,72.46
2022-10-25T10:32:29.363Z,72.51
2022-10-25T10:34:58.306Z,72.68
2022-10-25T10:37:26.504Z,72.96
2022-10-25T10:40:22.544Z,72.51
2022-10-25T10:42:49.182Z,72.88
2022-10-25T10:45:18.342Z,72.88
2022-10-25T10:47:53.435Z,72.52
2022-10-25T10:50:22.908Z,72.34
2022-10-25T10:53:07.421Z,71.58
2022-10-25T10:55:37.368Z,71.48
2022-10-25T10:58:03.895Z,70.90
2022-10-25T11:00:32.941Z,71.13
2022-10-25T11:02:59.461Z,71.21
2022-10-25T11:05:53.470Z,71.21
2022-10-25T11:08:21.082Z,70.64
2022-10-25T11:10:47.570Z,71.25
2022-10-25T11:13:15.440Z,70.92
2022-10-25T11:15:44.603Z,70.82
2022-10-25T11:18:13.740Z,70.52
2022-10-25T11:20:53.672Z,70.21
2022-10-25T11:23:33.862Z,69.36
2022-10-25T11:26:18.500Z,69.78
2022-10-25T11:29:10.211Z,69.33
2022-10-25T11:31:55.498Z,68.49
2022-10-25T11:34:40.720Z,68.17
2022-10-25T11:37:20.165Z,67.99
2022-10-25T11:39:56.056Z,67.14
2022-10-25T11:42:49.999Z,67.66
2022-10-25T11:45:41.126Z,68.07
2022-10-25T11:48:50.731Z,68.29
2022-10-25T11:51:59.902Z,68.54
2022-10-25T11:54:52.649Z,68.40
2022-10-25T11:57:57.832Z,67.51
2022-10-25T12:00:41.221Z,66.32
2022-10-25T12:03:19.714Z,66.82
2022-10-25T12:06:16.634Z,66.95
2022-10-25T12:09:06.979Z,67.00
2022-10-25T12:11:45.327Z,67.57
2022-10-25T12:14:15.780Z,68.20
2022-10-25T12:16:43.456Z,67.67
2022-10-25T12:19:24.658Z,68.06
2022-10-25T12:22:02.157Z,68.44
2022-10-25T12:24:44.256Z,68.16
2022-10-25T12:27:12.513Z,68.15
2022-10-25T12:29:46.786Z,67.73
2022-10-25T12:32:23.540Z,67.76
2022-10-25T12:34:53.790Z,67.75
2022-10-25T12:37:51.982Z,67.48
2022-10-25T12:43:24.566Z,67.84
2022-10-25T12:46:34.592Z,67.36
2022-10-25T12:49:49.166Z,68.25
2022-10-25T12:52:42.111Z,68.49
2022-10-25T12:55:36.440Z,68.20
2022-10-25T12:58:34.996Z,68.57
2022-10-25T13:01:13.702Z,68.62
2022-10-25T13:04:08.200Z,68.95
2022-10-25T13:06:38.262Z,68.95
2022-10-25T13:09:08.876Z,69.51
2022-10-25T13:11:39.272Z,69.53
2022-10-25T13:14:18.936Z,69.14
2022-10-25T13:16:45.588Z,67.97
2022-10-25T13:19:49.427Z,67.63
2022-10-25T13:22:35.924Z,66.90
2022-10-25T13:25:08.418Z,67.21
2022-10-25T13:27:36.765Z,67.57
2022-10-25T13:30:06.240Z,67.88
2022-10-25T13:32:37.130Z,67.84
2022-10-25T13:35:22.341Z,67.90
2022-10-25T13:37:52.798Z,68.26
2022-10-25T13:40:23.737Z,67.97
2022-10-25T13:43:21.038Z,68.47
2022-10-25T13:45:54.921Z,68.44
2022-10-25T13:48:34.543Z,68.46
2022-10-25T13:51:16.905Z,68.07
2022-10-25T13:53:50.398Z,68.26
2022-10-25T13:56:22.682Z,67.89
2022-10-25T13:58:51.463Z,67.54
2022-10-25T14:01:18.293Z,67.83
2022-10-25T14:04:06.034Z,67.78
2022-10-25T14:06:37.044Z,67.76
2022-10-25T14:09:34.044Z,68.02
2022-10-25T14:12:00.947Z,67.73
2022-10-25T14:14:53.072Z,67.28
2022-10-25T14:17:41.598Z,67.67
2022-10-25T14:20:18.143Z,67.72
2022-10-25T14:22:53.057Z,67.82
2022-10-25T14:25:24.317Z,67.09
2022-10-25T14:28:12.504Z,67.50
2022-10-25T14:30:52.463Z,67.02
2022-10-25T14:33:18.905Z,66.29
2022-10-25T14:35:48.585Z,66.06
2022-10-25T14:38:23.883Z,65.89
2022-10-25T14:40:57.279Z,66.17
2022-10-25T14:43:36.224Z,66.43
2022-10-25T14:46:05.685Z,67.05
2022-10-25T14:48:33.455Z,66.69
2022-10-25T14:51:05.903Z,65.87
2022-10-25T14:53:32.881Z,65.53
2022-10-25T14:56:05.085Z,65.62
2022-10-25T14:58:42.838Z,65.51
2022-10-25T15:01:12.500Z,65.81
2022-10-25T15:03:43.845Z,65.71
2022-10-25T15:06:13.368Z,66.17
2022-10-25T15:08:42.249Z,66.41
2022-10-25T15:11:15.679Z,66.30
2022-10-25T15:13:45.130Z,66.41
2022-10-25T15:16:49.946Z,66.82
2022-10-25T15:19:20.959Z,66.82
2022-10-25T15:21:52.908Z,66.93
2022-10-25T15:24:28.736Z,66.92
2022-10-25T15:27:01.150Z,66.71
2022-10-25T15:29:40.560Z,66.85
2022-10-25T15:32:13.019Z,66.92
2022-10-25T15:34:42.343Z,67.31
2022-10-25T15:37:12.577Z,67.15
2022-10-25T15:39:39.513Z,66.36
2022-10-25T15:42:06.570Z,67.04
2022-10-25T15:44:33.810Z,67.00
2022-10-25T15:47:00.471Z,67.17
2022-10-25T15:49:27.063Z,67.40
2022-10-25T15:51:55.414Z,67.19
2022-10-25T15:54:23.592Z,67.49
2022-10-25T15:56:51.789Z,67.85
2022-10-25T15:59:18.672Z,67.85
2022-10-25T16:01:51.682Z,68.28
2022-10-25T16:04:19.261Z,68.44
2022-10-25T16:06:47.046Z,68.06
2022-10-25T16:09:13.563Z,68.41
2022-10-25T16:11:44.920Z,67.99
2022-10-25T16:14:22.887Z,67.89
2022-10-25T16:16:49.958Z,67.93
2022-10-25T16:19:18.079Z,67.82
2022-10-25T16:21:45.246Z,67.72
2022-10-25T16:24:12.818Z,68.14
2022-10-25T16:26:42.902Z,68.20
2022-10-25T16:29:17.819Z,68.18
2022-10-25T16:31:44.426Z,68.51
2022-10-25T16:34:11.733Z,68.68
2022-10-25T16:36:38.685Z,68.60
2022-10-25T16:39:08.203Z,68.29
2022-10-25T16:41:38.768Z,68.17
2022-10-25T16:44:05.564Z,68.21
2022-10-25T16:46:32.198Z,68.26
2022-10-25T16:49:01.846Z,68.57
2022-10-25T16:51:28.911Z,68.45
2022-10-25T16:53:55.571Z,69.12
2022-10-25T16:56:22.129Z,68.96
2022-10-25T16:58:48.603Z,69.62
2022-10-25T17:01:22.778Z,70.10
2022-10-25T17:03:50.702Z,70.48
2022-10-25T17:06:39.734Z,71.15
2022-10-25T17:09:04.941Z,71.79
2022-10-25T17:11:31.412Z,71.94
2022-10-25T17:13:57.899Z,72.58
2022-10-25T17:16:24.434Z,72.49
2022-10-25T17:18:50.902Z,73.27
2022-10-25T17:21:18.166Z,73.28
2022-10-25T17:23:44.846Z,73.64
2022-10-25T17:26:14.280Z,73.94
2022-10-25T17:28:44.539Z,74.18
2022-10-25T17:31:13.441Z,74.73
2022-10-25T17:33:41.376Z,74.86
2022-10-25T17:36:17.135Z,75.54
2022-10-25T17:38:44.408Z,75.79
2022-10-25T17:41:11.889Z,75.68
2022-10-25T17:46:09.379Z,76.13
2022-10-25T17:48:35.896Z,76.66
2022-10-25T17:51:05.329Z,76.59
2022-10-25T17:53:32.274Z,77.26
2022-10-25T17:55:59.446Z,77.06
2022-10-25T17:58:25.963Z,77.67
2022-10-25T18:00:54.561Z,77.90
2022-10-25T18:03:21.540Z,78.19
2022-10-25T18:05:48.530Z,78.26
2022-10-25T18:08:15.263Z,78.41
2022-10-25T18:10:41.780Z,77.99
2022-10-25T18:13:08.300Z,78.67
2022-10-25T18:15:35.911Z,78.82
2022-10-25T18:18:02.462Z,78.79
2022-10-25T18:20:28.985Z,79.11
2022-10-25T18:22:55.661Z,78.78
2022-10-25T18:25:22.151Z,78.75
2022-10-25T18:27:48.893Z,79.07
2022-10-25T18:30:16.062Z,78.88
2022-10-25T18:32:42.607Z,79.29
2022-10-25T18:35:09.518Z,79.45
2022-10-25T18:37:36.009Z,79.50
2022-10-25T18:40:02.500Z,79.48
2022-10-25T18:42:29.041Z,80.17
2022-10-25T18:44:55.534Z,79.88
2022-10-25T18:47:22.096Z,80.01
2022-10-25T18:49:48.914Z,80.28
2022-10-25T18:52:15.418Z,80.04
2022-10-25T18:54:41.966Z,80.31
2022-10-25T18:57:08.549Z,80.23
2022-10-25T18:59:35.074Z,80.24
2022-10-25T19:02:01.672Z,80.07
2022-10-25T19:04:28.348Z,80.19
2022-10-25T19:06:54.888Z,80.08
2022-10-25T19:09:23.958Z,80.59
2022-10-25T19:11:50.467Z,80.72
2022-10-25T19:14:16.998Z,80.05
2022-10-25T19:16:43.802Z,79.61
2022-10-25T19:19:12.012Z,80.40
2022-10-25T19:21:38.596Z,79.85
2022-10-25T19:24:05.544Z,79.90
2022-10-25T19:26:32.051Z,79.99
2022-10-25T19:29:00.437Z,79.73
2022-10-25T19:31:27.781Z,79.84
2022-10-25T19:33:56.385Z,79.69
2022-10-25T19:36:22.924Z,79.72
2022-10-25T19:38:49.538Z,79.92
2022-10-25T19:41:18.329Z,80.01
2022-10-25T19:43:45.643Z,79.93
2022-10-25T19:46:13.217Z,79.97
2022-10-25T19:48:39.852Z,79.58
2022-10-25T19:51:12.246Z,79.79
2022-10-25T19:53:39.348Z,80.00
2022-10-25T19:56:12.688Z,79.90
2022-10-25T19:58:39.544Z,79.72
2022-10-25T20:01:13.163Z,80.02
2022-10-25T20:03:40.967Z,80.18
2022-10-25T20:06:11.226Z,79.86
2022-10-25T20:08:39.569Z,80.00
2022-10-25T20:11:07.277Z,79.90
2022-10-25T20:13:34.207Z,79.88
2022-10-25T20:16:01.299Z,79.90
2022-10-25T20:18:33.821Z,79.39
2022-10-25T20:21:03.830Z,79.29
2022-10-25T20:23:30.580Z,80.04
2022-10-25T20:25:57.079Z,80.11
2022-10-25T20:28:24.275Z,79.72
2022-10-25T20:30:51.423Z,79.81
2022-10-25T20:33:20.346Z,80.21
2022-10-25T20:35:46.943Z,80.31
2022-10-25T20:38:14.394Z,80.25
2022-10-25T20:40:41.025Z,80.08
2022-10-25T20:43:08.286Z,80.68
2022-10-25T20:45:34.822Z,80.36
2022-10-25T20:48:01.687Z,80.67
2022-10-25T20:50:29.460Z,80.62
2022-10-25T20:53:09.687Z,80.72
2022-10-25T20:55:36.964Z,80.48
2022-10-25T20:58:03.490Z,80.79
2022-10-25T21:00:30.000Z,80.98
2022-10-25T21:02:56.543Z,80.71
2022-10-25T21:05:23.020Z,80.54
2022-10-25T21:07:49.891Z,81.19
2022-10-25T21:10:16.566Z,80.60
2022-10-25T21:12:43.120Z,80.66
2022-10-25T21:15:12.079Z,81.14
2022-10-25T21:17:39.135Z,81.81
2022-10-25T21:20:06.594Z,82.13
2022-10-25T21:22:33.180Z,82.16
2022-10-25T21:25:00.027Z,82.18
2022-10-25T21:27:26.531Z,81.89
2022-10-25T21:29:53.005Z,82.01
2022-10-25T21:32:19.673Z,82.40
2022-10-25T21:34:46.249Z,82.51
2022-10-25T21:37:13.473Z,82.02
2022-10-25T21:39:40.503Z,81.89
2022-10-25T21:42:07.121Z,82.16
2022-10-25T21:44:33.668Z,82.37
2022-10-25T21:47:00.183Z,82.72
2022-10-25T21:49:26.702Z,82.38
2022-10-25T21:51:53.199Z,82.65
2022-10-25T21:54:21.723Z,82.57
2022-10-25T21:56:52.482Z,82.38
2022-10-25T21:59:20.092Z,82.29
2022-10-25T22:01:46.901Z,82.29
2022-10-25T22:04:13.959Z,81.88
2022-10-25T22:06:40.478Z,82.19
2022-10-25T22:09:07.659Z,82.74
2022-10-25T22:11:36.563Z,82.73
2022-10-25T22:14:10.548Z,82.98
2022-10-25T22:16:37.087Z,83.13
2022-10-25T22:19:12.363Z,82.93
2022-10-25T22:21:39.796Z,82.60
2022-10-25T22:24:08.552Z,82.98
2022-10-25T22:26:36.927Z,82.68
2022-10-25T22:29:03.678Z,82.73
2022-10-25T22:31:31.000Z,82.56
2022-10-25T22:34:00.126Z,83.10
2022-10-25T22:36:29.862Z,82.70
2022-10-25T22:38:57.058Z,83.01
2022-10-25T22:41:25.866Z,83.06
2022-10-25T22:43:52.496Z,82.63
2022-10-25T22:46:27.663Z,82.65
2022-10-25T22:48:56.394Z,82.73
2022-10-25T22:51:24.155Z,82.83
2022-10-25T22:53:50.753Z,82.72
2022-10-25T22:56:19.489Z,82.38
2022-10-25T22:58:51.857Z,82.84
2022-10-25T23:01:25.598Z,82.64
2022-10-25T23:03:54.783Z,82.51
2022-10-25T23:06:33.001Z,82.48
2022-10-25T23:09:01.477Z,82.47
2022-10-25T23:11:36.566Z,82.42
2022-10-25T23:14:05.200Z,81.94
2022-10-25T23:16:31.778Z,82.55
2022-10-25T23:18:58.603Z,81.94
2022-10-25T23:21:27.511Z,81.94
2022-10-25T23:23:55.071Z,81.87
2022-10-25T23:26:24.373Z,81.97
2022-10-25T23:28:51.615Z,82.41
2022-10-25T23:31:18.631Z,82.38
2022-10-25T23:33:45.592Z,82.14
2022-10-25T23:36:15.620Z,81.94
2022-10-25T23:38:47.177Z,82.35
2022-10-25T23:41:13.662Z,82.38
2022-10-25T23:43:40.482Z,82.71
2022-10-25T23:46:08.273Z,82.43
2022-10-25T23:48:35.519Z,82.26
2022-10-25T23:51:07.689Z,82.31
2022-10-25T23:53:35.570Z,82.77
2022-10-25T23:56:03.638Z,82.62
2022-10-25T23:58:30.896Z,83.27
